createdAt,value
2019-01-26T00:04:59.892Z,1009.4
2019-01-26T00:09:59.584Z,1009.4
2019-01-26T00:14:59.577Z,1009.4
2019-01-26T00:19:59.630Z,1009.4
2019-01-26T00:25:00.036Z,1009.4
2019-01-26T00:30:00.561Z,1009.4
2019-01-26T00:34:59.167Z,1009.3
2019-01-26T00:39:59.484Z,1009.2
2019-01-26T00:44:59.522Z,1009.1
2019-01-26T00:49:59.637Z,1009.1
2019-01-26T00:54:59.712Z,1009
2019-01-26T01:00:01.202Z,1009
2019-01-26T01:04:59.569Z,1008.8
2019-01-26T01:09:59.851Z,1008.8
2019-01-26T01:14:59.831Z,1008.8
2019-01-26T01:19:59.578Z,1008.8
2019-01-26T01:24:59.485Z,1008.8
2019-01-26T01:29:59.283Z,1008.8
2019-01-26T01:34:59.454Z,1008.8
2019-01-26T01:39:59.536Z,1008.7
2019-01-26T01:44:59.570Z,1008.7
2019-01-26T01:49:59.349Z,1008.7
2019-01-26T01:54:59.413Z,1008.6
2019-01-26T01:59:59.866Z,1008.6
2019-01-26T02:04:59.457Z,1008.6
2019-01-26T02:09:59.750Z,1008.5
2019-01-26T02:14:59.296Z,1008.5
2019-01-26T02:19:59.769Z,1008.6
2019-01-26T02:24:59.478Z,1008.6
2019-01-26T02:29:59.431Z,1008.7
2019-01-26T02:34:59.151Z,1008.7
2019-01-26T02:39:59.682Z,1008.6
2019-01-26T02:44:59.548Z,1008.6
2019-01-26T02:49:59.663Z,1008.7
2019-01-26T02:54:59.188Z,1008.6
2019-01-26T03:00:32.868Z,1008.5
2019-01-26T03:04:59.307Z,1008.4
2019-01-26T03:09:59.482Z,1008.4
2019-01-26T03:14:59.140Z,1008.4
2019-01-26T03:19:59.207Z,1008.4
2019-01-26T03:24:59.006Z,1008.4
2019-01-26T03:29:59.108Z,1008.3
2019-01-26T03:34:58.961Z,1008.3
2019-01-26T03:39:59.106Z,1008.2
2019-01-26T03:44:59.020Z,1008.2
2019-01-26T03:49:59.180Z,1008.3
2019-01-26T03:54:59.062Z,1008.1
2019-01-26T03:59:59.290Z,1008.1
2019-01-26T04:04:59.104Z,1007.8
2019-01-26T04:09:59.173Z,1007.8
2019-01-26T04:14:59.198Z,1007.7
2019-01-26T04:19:58.896Z,1007.7
2019-01-26T04:24:59.259Z,1007.6
2019-01-26T04:29:58.995Z,1007.6
2019-01-26T04:34:59.126Z,1007.7
2019-01-26T04:39:59.126Z,1007.7
2019-01-26T04:44:59.202Z,1007.7
2019-01-26T04:49:58.861Z,1007.7
2019-01-26T04:54:59.147Z,1007.7
2019-01-26T04:59:59.153Z,1007.6
2019-01-26T05:04:58.826Z,1007.6
2019-01-26T05:09:58.990Z,1007.5
2019-01-26T05:14:58.817Z,1007.5
2019-01-26T05:19:58.888Z,1007.5
2019-01-26T05:24:58.797Z,1007.5
2019-01-26T05:29:59.013Z,1007.5
2019-01-26T05:34:59.046Z,1007.4
2019-01-26T05:39:58.886Z,1007.4
2019-01-26T05:44:59.035Z,1007.4
2019-01-26T05:49:59.103Z,1007.3
2019-01-26T05:54:58.776Z,1007.3
2019-01-26T05:59:58.955Z,1007.4
2019-01-26T06:04:59.109Z,1007.3
2019-01-26T06:09:58.967Z,1007.3
2019-01-26T06:14:59.029Z,1007.2
2019-01-26T06:19:58.906Z,1007.2
2019-01-26T06:24:59.065Z,1007.2
2019-01-26T06:29:58.766Z,1007.3
2019-01-26T06:34:58.927Z,1007.3
2019-01-26T06:39:58.912Z,1007.3
2019-01-26T06:44:58.845Z,1007.3
2019-01-26T06:49:58.890Z,1007.2
2019-01-26T06:54:58.920Z,1007.3
2019-01-26T06:59:58.880Z,1007.2
2019-01-26T07:04:58.666Z,1007.1
2019-01-26T07:09:58.681Z,1007.2
2019-01-26T07:14:58.764Z,1007.3
2019-01-26T07:19:58.648Z,1007.3
2019-01-26T07:25:03.574Z,1007.3
2019-01-26T07:29:58.748Z,1007.3
2019-01-26T07:34:58.935Z,1007.3
2019-01-26T07:39:58.781Z,1007.3
2019-01-26T07:44:58.744Z,1007.3
2019-01-26T07:49:58.705Z,1007.2
2019-01-26T07:54:58.695Z,1007.2
2019-01-26T07:59:58.720Z,1007.1
2019-01-26T08:04:58.574Z,1007.2
2019-01-26T08:09:58.943Z,1007.2
2019-01-26T08:14:58.717Z,1007.3
2019-01-26T08:19:58.635Z,1007.4
2019-01-26T08:24:58.915Z,1007.4
2019-01-26T08:29:58.860Z,1007.4
2019-01-26T08:34:58.543Z,1007.4
2019-01-26T08:39:58.792Z,1007.4
2019-01-26T08:44:58.739Z,1007.3
2019-01-26T08:49:58.797Z,1007.3
2019-01-26T08:54:58.649Z,1007.3
2019-01-26T08:59:58.541Z,1007.3
2019-01-26T09:04:58.806Z,1007.2
2019-01-26T09:09:58.657Z,1007.2
2019-01-26T09:14:58.670Z,1007.2
2019-01-26T09:19:58.755Z,1007.2
2019-01-26T09:24:58.674Z,1007.1
2019-01-26T09:29:58.636Z,1007.1
2019-01-26T09:34:58.605Z,1007.1
2019-01-26T09:39:58.690Z,1007.1
2019-01-26T09:44:58.633Z,1007
2019-01-26T09:49:58.618Z,1007
2019-01-26T09:54:58.755Z,1007
2019-01-26T09:59:58.792Z,1006.9
2019-01-26T10:04:58.519Z,1006.9
2019-01-26T10:09:58.713Z,1006.9
2019-01-26T10:14:58.466Z,1006.9
2019-01-26T10:19:58.710Z,1006.8
2019-01-26T10:24:58.378Z,1006.7
2019-01-26T10:29:58.703Z,1006.7
2019-01-26T10:34:58.709Z,1006.6
2019-01-26T10:39:58.547Z,1006.5
2019-01-26T10:44:58.390Z,1006.4
2019-01-26T10:49:58.526Z,1006.3
2019-01-26T10:54:58.467Z,1006.2
2019-01-26T10:59:58.519Z,1006.2
2019-01-26T11:04:58.570Z,1006.2
2019-01-26T11:09:58.585Z,1006.1
2019-01-26T11:14:58.496Z,1006
2019-01-26T11:19:58.344Z,1005.9
2019-01-26T11:24:58.532Z,1005.8
2019-01-26T11:29:58.593Z,1005.8
2019-01-26T11:34:58.457Z,1005.7
2019-01-26T11:39:58.355Z,1005.6
2019-01-26T11:44:58.514Z,1005.5
2019-01-26T11:49:58.636Z,1005.4
2019-01-26T11:54:58.448Z,1005.3
2019-01-26T11:59:58.395Z,1005.2
2019-01-26T12:04:58.479Z,1005.1
2019-01-26T12:09:58.722Z,1005
2019-01-26T12:14:58.361Z,1004.9
2019-01-26T12:19:58.318Z,1004.8
2019-01-26T12:24:58.413Z,1004.7
2019-01-26T12:30:27.266Z,1004.6
2019-01-26T12:34:58.215Z,1004.6
2019-01-26T12:39:58.352Z,1004.4
2019-01-26T12:44:58.307Z,1004.3
2019-01-26T12:49:58.323Z,1004.2
2019-01-26T12:54:58.401Z,1004.1
2019-01-26T12:59:58.355Z,1004.1
2019-01-26T13:04:58.264Z,1004
2019-01-26T13:09:58.318Z,1003.9
2019-01-26T13:14:58.496Z,1003.8
2019-01-26T13:19:58.360Z,1003.7
2019-01-26T13:24:58.527Z,1003.6
2019-01-26T13:29:58.400Z,1003.5
2019-01-26T13:34:58.415Z,1003.4
2019-01-26T13:39:58.428Z,1003.2
2019-01-26T13:44:58.199Z,1003.2
2019-01-26T13:49:58.104Z,1003.1
2019-01-26T13:54:58.371Z,1003
2019-01-26T13:59:58.079Z,1003
2019-01-26T14:04:58.235Z,1002.8
2019-01-26T14:09:58.169Z,1002.8
2019-01-26T14:14:58.383Z,1002.7
2019-01-26T14:19:58.324Z,1002.7
2019-01-26T14:24:58.011Z,1002.6
2019-01-26T14:31:14.090Z,1002.5
2019-01-26T14:34:58.310Z,1002.4
2019-01-26T14:39:58.324Z,1002.3
2019-01-26T14:44:58.155Z,1002.2
2019-01-26T14:49:58.797Z,1002.1
2019-01-26T14:54:58.307Z,1002
2019-01-26T15:01:35.401Z,1002
2019-01-26T15:04:58.303Z,1001.9
2019-01-26T15:09:58.122Z,1001.8
2019-01-26T15:14:58.741Z,1001.7
2019-01-26T15:20:05.521Z,1001.6
2019-01-26T15:24:58.296Z,1001.6
2019-01-26T15:29:58.545Z,1001.4
2019-01-26T15:34:58.255Z,1001.3
2019-01-26T15:39:58.298Z,1001.2
2019-01-26T15:44:58.456Z,1001.1
2019-01-26T15:49:58.344Z,1001
2019-01-26T15:54:58.398Z,1000.9
2019-01-26T15:59:58.241Z,1000.8
2019-01-26T16:04:58.297Z,1000.7
2019-01-26T16:09:58.172Z,1000.7
2019-01-26T16:14:58.777Z,1000.5
2019-01-26T16:19:58.517Z,1000.5
2019-01-26T16:24:58.187Z,1000.4
2019-01-26T16:29:58.818Z,1000.3
2019-01-26T16:34:58.277Z,1000.1
2019-01-26T16:39:58.386Z,1000.1
2019-01-26T16:46:00.898Z,1000
2019-01-26T16:49:58.034Z,999.9
2019-01-26T16:54:58.234Z,999.7
2019-01-26T16:59:58.843Z,999.6
2019-01-26T17:04:58.548Z,999.5
2019-01-26T17:09:58.930Z,999.3
2019-01-26T17:14:58.242Z,999.1
2019-01-26T17:19:58.189Z,999.1
2019-01-26T17:24:58.076Z,999
2019-01-26T17:29:58.244Z,998.9
2019-01-26T17:34:58.136Z,998.9
2019-01-26T17:39:58.155Z,998.7
2019-01-26T17:44:58.291Z,998.6
2019-01-26T17:49:58.529Z,998.4
2019-01-26T17:54:58.180Z,998.4
2019-01-26T17:59:57.952Z,998.4
2019-01-26T18:04:58.255Z,998.2
2019-01-26T18:09:58.521Z,998.1
2019-01-26T18:14:59.221Z,998
2019-01-26T18:19:58.461Z,997.9
2019-01-26T18:24:58.224Z,997.8
2019-01-26T18:29:58.055Z,997.6
2019-01-26T18:34:58.648Z,997.6
2019-01-26T18:39:58.163Z,997.5
2019-01-26T18:44:58.193Z,997.4
2019-01-26T18:49:58.091Z,997.2
2019-01-26T18:54:57.771Z,997.1
2019-01-26T18:59:58.807Z,997
2019-01-26T19:04:57.817Z,996.9
2019-01-26T19:12:04.337Z,996.7
2019-01-26T19:15:07.715Z,996.7
2019-01-26T19:20:32.520Z,996.5
2019-01-26T19:24:58.342Z,996.4
2019-01-26T19:29:58.456Z,996.4
2019-01-26T19:34:58.366Z,996.3
2019-01-26T19:39:58.203Z,996.2
2019-01-26T19:45:19.137Z,996.1
2019-01-26T19:49:58.651Z,995.9
2019-01-26T19:54:59.711Z,995.8
2019-01-26T19:59:59.129Z,995.6
2019-01-26T20:04:59.099Z,995.5
2019-01-26T20:09:57.840Z,995.4
2019-01-26T20:14:58.029Z,995.3
2019-01-26T20:19:57.987Z,995.1
2019-01-26T20:24:57.998Z,995
2019-01-26T20:29:57.919Z,994.8
2019-01-26T20:34:57.834Z,994.7
2019-01-26T20:39:58.035Z,994.6
2019-01-26T20:44:57.984Z,994.6
2019-01-26T20:49:58.123Z,994.4
2019-01-26T20:54:58.119Z,994.2
2019-01-26T20:59:57.904Z,994.1
2019-01-26T21:04:58.052Z,993.9
2019-01-26T21:09:57.784Z,993.9
2019-01-26T21:15:04.400Z,993.8
2019-01-26T21:19:58.863Z,993.8
2019-01-26T21:24:58.049Z,993.6
2019-01-26T21:29:57.872Z,993.4
2019-01-26T21:34:57.749Z,993.2
2019-01-26T21:39:58.095Z,993.2
2019-01-26T21:44:57.945Z,993.1
2019-01-26T21:49:58.327Z,993
2019-01-26T21:54:57.817Z,992.9
2019-01-26T21:59:58.321Z,992.8
2019-01-26T22:04:57.805Z,992.8
2019-01-26T22:09:57.829Z,992.6
2019-01-26T22:14:57.693Z,992.6
2019-01-26T22:19:58.195Z,992.4
2019-01-26T22:24:57.840Z,992.2
2019-01-26T22:29:57.835Z,992.1
2019-01-26T22:34:57.910Z,991.9
2019-01-26T22:39:58.252Z,991.9
2019-01-26T22:44:57.534Z,991.7
2019-01-26T22:49:58.033Z,991.6
2019-01-26T22:54:58.244Z,991.4
2019-01-26T22:59:57.894Z,991.2
2019-01-26T23:04:57.715Z,991
2019-01-26T23:09:57.955Z,990.8
2019-01-26T23:14:57.708Z,990.7
2019-01-26T23:19:58.118Z,990.6
2019-01-26T23:24:57.637Z,990.6
2019-01-26T23:29:57.785Z,990.5
2019-01-26T23:34:57.622Z,990.4
2019-01-26T23:39:57.851Z,990.2
2019-01-26T23:44:57.703Z,990.1
2019-01-26T23:49:57.879Z,989.9
2019-01-26T23:54:57.774Z,989.8
2019-01-26T23:59:58.156Z,989.9
